Redlawn, Texas
Current Conditions -  °F | °C
As of 10:35 AM on Saturday 25 Oct 2014 (Local Time) from KJSO Reporting Station
Clear Clear  
Wind Chill: 74°   Ceiling: Unl
Heat Index: 74°   Visibility: 10mi
Dew Point: 59°   Wind: 3mph
Humidity: 61%   Direction: 230°SW
Pressure: 30.21"   Gusts: NA
Location:  31.6384°N, 95.0772°W
Report Text: KJSO 251535Z AUTO 23003KT 10SM CLR 23/15 A3021 RMK AO2 T02310152
Loading
Personal Weather Stations






























Interactive Weather Map New forecast layout! Learn more

10-Day Weather Forecast

Advertisements
Track Severe Weather on mobile